createdAt,value
2023-01-09T00:01:18.129Z,0
2023-01-09T00:06:22.314Z,0
2023-01-09T00:11:26.487Z,0
2023-01-09T00:16:30.661Z,0
2023-01-09T00:21:34.798Z,0
2023-01-09T00:26:38.983Z,0
2023-01-09T00:31:43.144Z,0
2023-01-09T00:36:47.307Z,0
2023-01-09T00:41:51.480Z,0
2023-01-09T00:46:55.614Z,0
2023-01-09T00:51:59.782Z,0
2023-01-09T00:57:03.952Z,0
2023-01-09T01:02:08.310Z,0
2023-01-09T01:07:10.354Z,0
2023-01-09T01:12:14.499Z,0
2023-01-09T01:17:16.783Z,0
2023-01-09T01:22:20.977Z,0
2023-01-09T01:27:25.114Z,0
2023-01-09T01:32:29.326Z,0
2023-01-09T01:37:33.446Z,0
2023-01-09T01:42:37.583Z,0
2023-01-09T01:47:41.780Z,0
2023-01-09T01:52:45.932Z,0
2023-01-09T01:57:50.100Z,0
2023-01-09T02:02:54.332Z,0
2023-01-09T02:07:58.457Z,0
2023-01-09T02:13:02.609Z,0
2023-01-09T02:18:06.757Z,0
2023-01-09T02:23:10.939Z,0
2023-01-09T02:28:15.074Z,0
2023-01-09T02:33:19.239Z,0
2023-01-09T02:38:23.417Z,0
2023-01-09T02:43:27.563Z,0
2023-01-09T02:48:31.729Z,0
2023-01-09T02:53:35.876Z,0
2023-01-09T02:58:40.057Z,0
2023-01-09T03:03:42.462Z,0
2023-01-09T03:08:46.460Z,0
2023-01-09T03:13:48.765Z,0
2023-01-09T03:18:52.919Z,0
2023-01-09T03:23:57.140Z,0
2023-01-09T03:29:01.258Z,0
2023-01-09T03:34:05.388Z,0
2023-01-09T03:39:09.583Z,0
2023-01-09T03:44:13.748Z,0
2023-01-09T03:49:17.920Z,0
2023-01-09T03:54:22.047Z,0
2023-01-09T03:59:26.225Z,0
2023-01-09T04:04:30.374Z,0
2023-01-09T04:09:34.535Z,0
2023-01-09T04:14:38.710Z,0
2023-01-09T04:19:42.846Z,0
2023-01-09T04:24:47.017Z,0
2023-01-09T04:29:51.194Z,0
2023-01-09T04:34:55.352Z,0
2023-01-09T04:39:59.507Z,0
2023-01-09T04:45:03.673Z,0
2023-01-09T04:50:07.836Z,0
2023-01-09T04:55:12.023Z,0
2023-01-09T05:00:14.292Z,0
2023-01-09T05:05:18.426Z,0
2023-01-09T05:10:22.619Z,0
2023-01-09T05:15:26.751Z,0
2023-01-09T05:20:30.967Z,0
2023-01-09T05:25:35.104Z,0
2023-01-09T05:30:39.288Z,0
2023-01-09T05:35:43.427Z,0
2023-01-09T05:40:47.596Z,0
2023-01-09T05:45:51.786Z,0
2023-01-09T05:50:55.918Z,0
2023-01-09T05:56:00.041Z,0
2023-01-09T06:01:04.321Z,0
2023-01-09T06:06:08.415Z,0
2023-01-09T06:11:12.539Z,0
2023-01-09T06:16:16.718Z,0
2023-01-09T06:21:20.876Z,0
2023-01-09T06:26:25.040Z,0
2023-01-09T06:31:29.317Z,0
2023-01-09T06:36:33.355Z,0
2023-01-09T06:41:37.522Z,0
2023-01-09T06:46:39.797Z,0
2023-01-09T06:51:43.993Z,0
2023-01-09T06:56:46.258Z,0
2023-01-09T07:01:50.471Z,0
2023-01-09T07:06:54.571Z,0
2023-01-09T07:11:58.723Z,0
2023-01-09T07:17:03.269Z,3
2023-01-09T07:22:07.041Z,7
2023-01-09T07:27:11.217Z,26
2023-01-09T07:32:15.405Z,39
2023-01-09T07:37:19.578Z,59
2023-01-09T07:42:23.713Z,97
2023-01-09T07:47:27.889Z,117
2023-01-09T07:52:32.092Z,196
2023-01-09T07:57:36.198Z,201
2023-01-09T08:02:40.375Z,237
2023-01-09T08:07:44.519Z,437
2023-01-09T08:12:48.716Z,533
2023-01-09T08:17:52.959Z,684
2023-01-09T08:22:57.021Z,1027
2023-01-09T08:28:01.173Z,1181
2023-01-09T08:33:05.353Z,1220
2023-01-09T08:38:09.475Z,882
2023-01-09T08:43:11.784Z,872
2023-01-09T08:48:15.979Z,1417
2023-01-09T08:53:18.206Z,2365
2023-01-09T08:58:22.383Z,1822
2023-01-09T09:03:26.582Z,1009
2023-01-09T09:08:30.739Z,1645
2023-01-09T09:13:34.872Z,1750
2023-01-09T09:18:39.001Z,1500
2023-01-09T09:23:43.183Z,2407
2023-01-09T09:28:47.345Z,1309
2023-01-09T09:33:51.508Z,1605
2023-01-09T09:38:55.668Z,1603
2023-01-09T09:43:59.815Z,1192
2023-01-09T09:49:05.950Z,2175
2023-01-09T09:54:08.173Z,2439
2023-01-09T09:59:12.358Z,1665
2023-01-09T10:04:16.488Z,1775
2023-01-09T10:09:20.702Z,1117
2023-01-09T10:14:24.967Z,1173
2023-01-09T10:19:28.965Z,2458
2023-01-09T10:24:33.144Z,3585
2023-01-09T10:29:37.300Z,2548
2023-01-09T10:34:41.435Z,3046
2023-01-09T10:39:43.714Z,2470
2023-01-09T10:44:47.909Z,1590
2023-01-09T10:49:50.157Z,1331
2023-01-09T10:54:54.311Z,2640
2023-01-09T10:59:58.491Z,2777
2023-01-09T11:05:02.708Z,1744
2023-01-09T11:10:06.835Z,1755
2023-01-09T11:15:11.161Z,2604
2023-01-09T11:20:15.129Z,3481
2023-01-09T11:25:19.303Z,2961
2023-01-09T11:30:23.444Z,4104
2023-01-09T11:35:27.656Z,2986
2023-01-09T11:40:31.782Z,2657
2023-01-09T11:45:35.945Z,3546
2023-01-09T11:50:40.118Z,4275
2023-01-09T11:55:44.278Z,3361
2023-01-09T12:00:46.545Z,3107
2023-01-09T12:05:50.757Z,3606
2023-01-09T12:10:54.885Z,3637
2023-01-09T12:15:59.085Z,3159
2023-01-09T12:21:03.217Z,3172
2023-01-09T12:26:07.381Z,2348
2023-01-09T12:31:11.526Z,3454
2023-01-09T12:36:13.898Z,2617
2023-01-09T12:41:17.969Z,3068
2023-01-09T12:46:20.228Z,2405
2023-01-09T12:51:24.407Z,3481
2023-01-09T12:56:28.542Z,2702
2023-01-09T13:01:32.759Z,1850
2023-01-09T13:06:38.884Z,2148
2023-01-09T13:11:42.020Z,1374
2023-01-09T13:16:45.239Z,1066
2023-01-09T13:21:49.349Z,2084
2023-01-09T13:26:53.528Z,1990
2023-01-09T13:31:57.771Z,1755
2023-01-09T13:37:01.931Z,2129
2023-01-09T13:42:06.005Z,2086
2023-01-09T13:47:10.149Z,1155
2023-01-09T13:52:14.315Z,872
2023-01-09T13:57:18.519Z,714
2023-01-09T14:02:22.689Z,745
2023-01-09T14:07:26.816Z,818
2023-01-09T14:12:30.959Z,915
2023-01-09T14:17:35.227Z,1240
2023-01-09T14:22:50.349Z,480
2023-01-09T14:27:43.632Z,441
2023-01-09T14:32:45.737Z,657
2023-01-09T14:37:49.897Z,577
2023-01-09T14:42:54.119Z,960
2023-01-09T14:47:56.388Z,952
2023-01-09T14:53:00.543Z,815
2023-01-09T14:58:04.659Z,602
2023-01-09T15:03:08.837Z,610
2023-01-09T15:08:13.805Z,661
2023-01-09T15:13:17.137Z,562
2023-01-09T15:18:21.292Z,379
2023-01-09T15:23:25.483Z,299
2023-01-09T15:28:29.647Z,237
2023-01-09T15:33:33.793Z,186
2023-01-09T15:38:37.957Z,170
2023-01-09T15:43:42.166Z,115
2023-01-09T15:48:46.322Z,30
2023-01-09T15:53:50.460Z,35
2023-01-09T15:58:54.632Z,15
2023-01-09T16:03:58.789Z,15
2023-01-09T16:09:02.973Z,6
2023-01-09T16:14:07.070Z,2
2023-01-09T16:19:11.283Z,0
2023-01-09T16:24:15.401Z,0
2023-01-09T16:29:19.612Z,0
2023-01-09T16:34:21.834Z,0
2023-01-09T16:39:26.027Z,0
2023-01-09T16:44:28.308Z,0
2023-01-09T16:49:32.436Z,0
2023-01-09T16:54:36.636Z,0
2023-01-09T16:59:40.804Z,0
2023-01-09T17:04:44.943Z,0
2023-01-09T17:09:49.083Z,0
2023-01-09T17:14:53.289Z,0
2023-01-09T17:19:57.644Z,0
2023-01-09T17:25:01.674Z,0
2023-01-09T17:30:18.250Z,0
2023-01-09T17:35:09.909Z,0
2023-01-09T17:40:14.059Z,0
2023-01-09T17:45:18.265Z,0
2023-01-09T17:50:22.407Z,0
2023-01-09T17:55:26.769Z,0
2023-01-09T18:00:30.724Z,0
2023-01-09T18:05:34.905Z,0
2023-01-09T18:10:39.066Z,0
2023-01-09T18:15:43.200Z,0
2023-01-09T18:20:47.582Z,0
2023-01-09T18:25:51.600Z,0
2023-01-09T18:30:53.856Z,0
2023-01-09T18:35:58.000Z,0
2023-01-09T18:41:00.275Z,0
2023-01-09T18:46:04.555Z,0
2023-01-09T18:51:08.587Z,0
2023-01-09T18:56:12.756Z,0
2023-01-09T19:01:17.039Z,0
2023-01-09T19:06:21.065Z,0
2023-01-09T19:11:25.264Z,0
2023-01-09T19:16:29.472Z,0
2023-01-09T19:21:33.582Z,0
2023-01-09T19:26:37.724Z,0
2023-01-09T19:31:41.926Z,0
2023-01-09T19:36:46.127Z,0
2023-01-09T19:41:50.224Z,0
2023-01-09T19:46:54.396Z,0
2023-01-09T19:51:58.524Z,0
2023-01-09T19:57:03.141Z,0
2023-01-09T20:02:06.901Z,0
2023-01-09T20:07:11.036Z,0
2023-01-09T20:12:15.218Z,0
2023-01-09T20:17:19.354Z,0
2023-01-09T20:22:23.576Z,0
2023-01-09T20:27:25.886Z,0
2023-01-09T20:32:30.022Z,0
2023-01-09T20:37:32.266Z,0
2023-01-09T20:42:36.489Z,0
2023-01-09T20:47:40.545Z,0
2023-01-09T20:52:44.719Z,0
2023-01-09T20:57:48.889Z,0
2023-01-09T21:02:53.017Z,0
2023-01-09T21:07:57.230Z,0
2023-01-09T21:13:01.364Z,0
2023-01-09T21:18:05.534Z,0
2023-01-09T21:23:09.709Z,0
2023-01-09T21:28:13.861Z,0
2023-01-09T21:33:18.015Z,0
2023-01-09T21:38:22.189Z,0
2023-01-09T21:43:26.329Z,0
2023-01-09T21:48:30.487Z,0
2023-01-09T21:53:34.676Z,0
2023-01-09T21:58:38.819Z,0
2023-01-09T22:03:43.017Z,0
2023-01-09T22:08:47.173Z,0
2023-01-09T22:13:51.322Z,0
2023-01-09T22:18:55.493Z,0
2023-01-09T22:23:57.770Z,0
2023-01-09T22:29:01.941Z,0
2023-01-09T22:34:04.190Z,0
2023-01-09T22:39:08.369Z,0
2023-01-09T22:44:12.532Z,0
2023-01-09T22:49:16.700Z,0
2023-01-09T22:54:20.860Z,0
2023-01-09T22:59:27.030Z,0
2023-01-09T23:04:29.179Z,0
2023-01-09T23:09:33.303Z,0
2023-01-09T23:14:37.532Z,0
2023-01-09T23:19:41.675Z,0
2023-01-09T23:24:45.818Z,0
2023-01-09T23:29:50.013Z,0
2023-01-09T23:34:54.183Z,0
2023-01-09T23:39:58.334Z,0
2023-01-09T23:45:02.477Z,0
2023-01-09T23:50:06.663Z,0
2023-01-09T23:55:10.785Z,0
